Time;durP1;ratioP1;P1;durP2;ratioP2;P2;SDS_P1;SDS_P2;PMS_P1;PMS_P2;Temp;Humidity;BMP_temperature;BMP_pressure;BME280_temperature;BME280_humidity;BME280_pressure;Samples;Min_cycle;Max_cycle;Signal;HPM_P1;HPM_P2
2024/02/26 00:00:50;;;;;;;22.07;21.27;;;24.90;1.00;;;;;;2612566;54;20384;-58
2024/02/26 00:06:41;;;;;;;21.70;21.00;;;24.80;1.00;;;;;;2613207;54;20387;-57
2024/02/26 00:16:24;;;;;;;21.27;20.57;;;24.50;1.00;;;;;;2613159;54;20422;-57
2024/02/26 00:22:12;;;;;;;22.23;21.43;;;24.30;1.00;;;;;;2613400;54;20386;-58
2024/02/26 00:27:59;;;;;;;22.80;22.00;;;24.10;1.00;;;;;;2612982;54;20656;-59
2024/02/26 00:33:47;;;;;;;22.30;21.50;;;24.10;1.00;;;;;;2613400;31;20650;-58
2024/02/26 00:39:35;;;;;;;22.67;21.87;;;24.00;1.00;;;;;;2613173;39;20220;-60
2024/02/26 00:45:23;;;;;;;22.60;21.80;;;23.90;1.00;;;;;;2612865;47;20928;-59
2024/02/26 00:51:10;;;;;;;22.63;21.83;;;23.80;1.00;;;;;;2609508;54;20270;-60
2024/02/26 00:56:58;;;;;;;22.27;21.47;;;23.70;1.00;;;;;;2611314;54;20128;-60
2024/02/26 01:02:46;;;;;;;22.90;22.10;;;23.70;1.00;;;;;;2610312;54;20248;-79
2024/02/26 01:05:13;;;;;;;22.87;22.07;;;23.60;1.00;;;;;;2608703;54;20432;-78
2024/02/26 01:07:39;;;;;;;21.43;20.70;;;23.60;1.00;;;;;;2610377;54;20417;-79
2024/02/26 01:10:06;;;;;;;22.20;21.40;;;23.50;1.00;;;;;;2609556;54;20426;-79
2024/02/26 01:12:34;;;;;;;22.50;21.70;;;23.50;1.00;;;;;;2611687;39;20863;-80
2024/02/26 01:15:00;;;;;;;21.90;21.10;;;23.50;1.00;;;;;;2610646;54;20430;-80
2024/02/26 01:17:25;;;;;;;22.20;21.40;;;23.50;1.00;;;;;;2608744;54;20433;-79
2024/02/26 01:19:51;;;;;;;23.00;22.20;;;23.40;1.00;;;;;;2610085;54;20549;-79
2024/02/26 01:22:17;;;;;;;22.50;21.70;;;23.40;1.00;;;;;;2609600;54;20518;-79
2024/02/26 01:24:43;;;;;;;22.37;21.57;;;23.40;1.00;;;;;;2609828;54;20161;-80
2024/02/26 01:27:09;;;;;;;22.60;21.80;;;23.30;1.00;;;;;;2610537;54;21127;-80
2024/02/26 01:29:34;;;;;;;22.50;21.70;;;23.30;1.00;;;;;;2611601;54;20162;-80
2024/02/26 01:32:00;;;;;;;24.87;23.97;;;23.20;1.00;;;;;;2612344;39;20664;-79
2024/02/26 01:34:26;;;;;;;22.60;21.80;;;23.20;1.00;;;;;;2610444;54;20163;-79
2024/02/26 01:36:51;;;;;;;22.83;22.03;;;23.20;1.00;;;;;;2607797;54;20749;-77
2024/02/26 01:39:17;;;;;;;22.87;22.07;;;23.20;1.00;;;;;;2610807;54;20164;-77
2024/02/26 01:41:43;;;;;;;22.10;21.30;;;23.10;1.00;;;;;;2610577;54;20190;-78
2024/02/26 01:44:12;;;;;;;22.60;21.80;;;23.10;1.00;;;;;;2609366;47;20180;-78
2024/02/26 01:46:38;;;;;;;22.80;22.00;;;23.10;1.00;;;;;;2611238;54;20620;-78
2024/02/26 01:49:04;;;;;;;22.90;22.10;;;23.00;1.00;;;;;;2610963;54;20419;-77
2024/02/26 01:51:32;;;;;;;22.50;21.70;;;23.10;1.00;;;;;;2611940;47;20170;-77
2024/02/26 01:53:59;;;;;;;22.60;21.80;;;23.00;1.00;;;;;;2612928;47;20441;-77
2024/02/26 01:56:30;;;;;;;22.50;21.70;;;23.00;1.00;;;;;;2611509;54;20467;-83
2024/02/26 01:58:57;;;;;;;22.00;21.20;;;23.00;1.00;;;;;;2612062;54;20502;-84
2024/02/26 02:01:26;;;;;;;22.00;21.20;;;22.90;1.00;;;;;;2613055;47;20455;-83
2024/02/26 02:03:53;;;;;;;22.50;21.70;;;22.90;1.00;;;;;;2613288;54;20420;-83
2024/02/26 02:06:19;;;;;;;23.57;22.67;;;22.90;1.00;;;;;;2613659;54;20458;-83
2024/02/26 02:08:46;;;;;;;22.63;21.83;;;22.90;1.00;;;;;;2613454;39;20841;-83
2024/02/26 02:11:12;;;;;;;22.67;21.87;;;22.80;1.00;;;;;;2613927;54;20433;-84
2024/02/26 02:13:38;;;;;;;22.50;21.70;;;22.80;1.00;;;;;;2612978;54;20457;-84
2024/02/26 02:16:04;;;;;;;22.20;21.40;;;22.80;1.00;;;;;;2614139;39;22240;-84
2024/02/26 02:18:31;;;;;;;22.27;21.47;;;22.70;1.00;;;;;;2612614;54;20430;-84
2024/02/26 02:20:59;;;;;;;22.07;21.27;;;22.70;1.00;;;;;;2613095;54;20489;-83
2024/02/26 02:23:25;;;;;;;21.90;21.10;;;22.70;1.00;;;;;;2612583;54;20462;-84
2024/02/26 02:25:51;;;;;;;22.23;21.43;;;22.70;1.00;;;;;;2612241;54;20411;-83
2024/02/26 02:28:17;;;;;;;22.70;21.90;;;22.60;1.00;;;;;;2612234;54;20437;-84
2024/02/26 02:30:42;;;;;;;22.83;22.03;;;22.70;1.00;;;;;;2613009;54;20519;-83
2024/02/26 02:33:08;;;;;;;22.17;21.37;;;22.60;1.00;;;;;;2613859;54;20208;-83
2024/02/26 02:35:34;;;;;;;22.50;21.70;;;22.60;1.00;;;;;;2612591;54;20696;-84
2024/02/26 02:38:00;;;;;;;21.80;21.10;;;22.60;1.00;;;;;;2610716;54;20156;-83
2024/02/26 02:40:25;;;;;;;22.03;21.23;;;22.60;1.00;;;;;;2612541;47;20190;-83
2024/02/26 02:42:51;;;;;;;22.30;21.50;;;22.50;1.00;;;;;;2613209;54;20413;-83
2024/02/26 02:45:16;;;;;;;22.70;21.90;;;22.50;1.00;;;;;;2612904;54;20169;-74
2024/02/26 02:47:42;;;;;;;22.33;21.53;;;22.50;1.00;;;;;;2613197;54;20171;-74
2024/02/26 02:50:08;;;;;;;22.00;21.20;;;22.50;1.00;;;;;;2613815;47;20248;-76
2024/02/26 02:52:34;;;;;;;22.37;21.57;;;22.50;1.00;;;;;;2611916;54;20180;-74
2024/02/26 02:55:00;;;;;;;21.70;20.97;;;22.50;1.00;;;;;;2612728;39;20836;-78
2024/02/26 02:57:26;;;;;;;21.60;20.90;;;22.50;1.00;;;;;;2613194;54;20158;-80
2024/02/26 02:59:53;;;;;;;22.00;21.20;;;22.40;1.00;;;;;;2611848;54;21600;-80
2024/02/26 03:02:18;;;;;;;23.07;22.27;;;22.40;1.00;;;;;;2611572;54;20193;-80
2024/02/26 03:04:44;;;;;;;22.63;21.83;;;22.40;1.00;;;;;;2613412;54;20510;-81
2024/02/26 03:07:09;;;;;;;22.43;21.63;;;22.40;1.00;;;;;;2613075;54;20243;-73
2024/02/26 03:09:35;;;;;;;22.23;21.43;;;22.30;1.00;;;;;;2611293;54;20223;-74
2024/02/26 03:12:01;;;;;;;22.80;22.00;;;22.30;1.00;;;;;;2612485;54;20166;-74
2024/02/26 03:14:27;;;;;;;23.13;22.30;;;22.30;1.00;;;;;;2612453;54;20165;-74
2024/02/26 03:16:55;;;;;;;23.20;22.40;;;22.20;1.00;;;;;;2612398;46;20265;-74
2024/02/26 03:19:21;;;;;;;23.10;22.30;;;22.30;1.00;;;;;;2611385;47;20430;-74
2024/02/26 03:21:46;;;;;;;22.83;22.03;;;22.30;1.00;;;;;;2612573;47;20423;-74
2024/02/26 03:24:13;;;;;;;22.90;22.10;;;22.20;1.00;;;;;;2612816;39;20557;-74
2024/02/26 03:26:41;;;;;;;22.73;21.93;;;22.20;1.00;;;;;;2611859;39;20669;-74
2024/02/26 03:29:07;;;;;;;22.63;21.83;;;22.20;1.00;;;;;;2612900;39;20870;-74
2024/02/26 03:31:33;;;;;;;23.73;22.83;;;22.20;1.00;;;;;;2612607;54;20515;-74
2024/02/26 03:33:58;;;;;;;22.40;21.60;;;22.10;1.00;;;;;;2612003;54;20165;-75
2024/02/26 03:36:24;;;;;;;22.93;22.13;;;22.10;1.00;;;;;;2613305;54;20160;-75
2024/02/26 03:38:50;;;;;;;22.60;21.80;;;22.10;1.00;;;;;;2612828;54;20181;-74
2024/02/26 03:41:15;;;;;;;22.80;22.00;;;22.10;1.00;;;;;;2612400;54;20174;-74
2024/02/26 03:43:41;;;;;;;22.80;22.00;;;22.10;1.00;;;;;;2611074;54;20702;-74
2024/02/26 03:46:13;;;;;;;22.70;21.90;;;22.00;1.00;;;;;;2611433;54;20179;-74
2024/02/26 03:48:40;;;;;;;22.63;21.83;;;22.10;1.00;;;;;;2611412;54;20268;-74
2024/02/26 03:51:08;;;;;;;23.00;22.20;;;22.10;1.00;;;;;;2613239;54;20441;-74
2024/02/26 03:53:33;;;;;;;22.40;21.60;;;22.00;1.00;;;;;;2611492;54;20457;-74
2024/02/26 03:56:03;;;;;;;23.67;22.60;;;22.00;1.00;;;;;;2612588;54;20421;-74
2024/02/26 03:58:29;;;;;;;22.67;21.87;;;22.00;1.00;;;;;;2611570;39;20581;-73
2024/02/26 04:00:54;;;;;;;23.00;22.20;;;22.00;1.00;;;;;;2612133;54;20453;-74
2024/02/26 04:03:20;;;;;;;22.33;21.53;;;22.00;1.00;;;;;;2612124;54;20166;-74
2024/02/26 04:05:46;;;;;;;23.20;22.40;;;21.90;1.00;;;;;;2611345;54;20158;-79
2024/02/26 04:08:11;;;;;;;22.50;21.70;;;21.90;1.00;;;;;;2612943;54;20730;-79
2024/02/26 04:10:40;;;;;;;22.23;21.43;;;21.90;1.00;;;;;;2613278;54;20157;-79
2024/02/26 04:13:07;;;;;;;23.40;22.60;;;21.90;1.00;;;;;;2613214;39;20683;-79
2024/02/26 04:15:33;;;;;;;22.67;21.87;;;21.90;1.00;;;;;;2613144;54;20457;-78
2024/02/26 04:17:58;;;;;;;23.20;22.40;;;21.90;1.00;;;;;;2612041;54;20445;-77
2024/02/26 04:20:24;;;;;;;23.27;22.47;;;21.80;1.00;;;;;;2614453;39;20599;-78
2024/02/26 04:22:50;;;;;;;22.97;22.17;;;21.80;1.00;;;;;;2611972;54;20157;-77
2024/02/26 04:25:15;;;;;;;22.80;22.00;;;21.80;1.00;;;;;;2611778;54;20159;-80
2024/02/26 04:27:42;;;;;;;22.50;21.70;;;21.80;1.00;;;;;;2613454;54;20631;-79
2024/02/26 04:30:08;;;;;;;23.73;22.90;;;21.80;1.00;;;;;;2613578;54;20170;-79
2024/02/26 04:32:34;;;;;;;23.90;23.00;;;21.80;1.00;;;;;;2613895;54;20427;-79
2024/02/26 04:35:02;;;;;;;22.87;22.07;;;21.70;1.00;;;;;;2613869;39;21032;-79
2024/02/26 04:37:30;;;;;;;23.70;22.80;;;21.70;1.00;;;;;;2612745;54;20446;-79
2024/02/26 04:40:00;;;;;;;23.20;22.40;;;21.70;1.00;;;;;;2612180;54;21110;-79
2024/02/26 04:42:26;;;;;;;23.30;22.50;;;21.70;1.00;;;;;;2613040;54;20957;-79
2024/02/26 04:44:52;;;;;;;23.43;22.63;;;21.70;1.00;;;;;;2612381;54;20420;-79
2024/02/26 04:47:18;;;;;;;23.23;22.43;;;21.70;1.00;;;;;;2612903;54;20421;-79
2024/02/26 04:49:43;;;;;;;22.87;22.07;;;21.70;1.00;;;;;;2612407;54;20684;-79
2024/02/26 04:52:09;;;;;;;23.13;22.23;;;21.60;1.00;;;;;;2613861;47;20607;-79
2024/02/26 04:54:35;;;;;;;23.20;22.40;;;21.60;1.00;;;;;;2612201;54;20162;-79
2024/02/26 04:57:00;;;;;;;23.30;22.50;;;21.60;1.00;;;;;;2613353;31;20668;-79
2024/02/26 04:59:27;;;;;;;23.20;22.40;;;21.60;1.00;;;;;;2612472;54;20255;-79
2024/02/26 05:01:53;;;;;;;23.40;22.60;;;21.60;1.00;;;;;;2613085;54;20198;-79
2024/02/26 05:04:18;;;;;;;23.53;22.63;;;21.60;1.00;;;;;;2613842;54;20416;-79
2024/02/26 05:06:44;;;;;;;23.20;22.40;;;21.60;1.00;;;;;;2612073;54;20173;-79
2024/02/26 05:09:10;;;;;;;23.40;22.50;;;21.60;1.00;;;;;;2611703;54;20145;-79
2024/02/26 05:11:36;;;;;;;23.70;22.80;;;21.70;1.00;;;;;;2613153;54;20419;-78
2024/02/26 05:14:01;;;;;;;23.70;22.80;;;21.70;1.00;;;;;;2613812;54;20887;-79
2024/02/26 05:16:27;;;;;;;23.63;22.73;;;21.60;1.00;;;;;;2612819;54;20737;-73
2024/02/26 05:18:53;;;;;;;24.20;23.30;;;21.60;1.00;;;;;;2612665;39;20352;-73
2024/02/26 05:21:19;;;;;;;25.07;24.17;;;21.60;1.00;;;;;;2612861;47;20165;-73
2024/02/26 05:23:45;;;;;;;24.40;23.50;;;21.70;1.00;;;;;;2613873;39;20924;-73
2024/02/26 05:26:11;;;;;;;24.13;23.23;;;21.70;1.00;;;;;;2612152;54;20158;-77
2024/02/26 05:28:39;;;;;;;24.47;23.57;;;21.70;1.00;;;;;;2613081;54;20951;-77
2024/02/26 05:31:05;;;;;;;23.60;22.80;;;21.60;1.00;;;;;;2613281;54;20158;-77
2024/02/26 05:33:31;;;;;;;24.00;23.10;;;21.60;1.00;;;;;;2613581;47;20430;-77
2024/02/26 05:35:56;;;;;;;23.43;22.63;;;21.60;1.00;;;;;;2613284;54;20433;-73
2024/02/26 05:38:22;;;;;;;24.00;23.10;;;21.60;1.00;;;;;;2611206;47;20202;-72
2024/02/26 05:40:48;;;;;;;23.47;22.60;;;21.60;1.00;;;;;;2612879;54;20161;-72
2024/02/26 05:43:16;;;;;;;22.93;22.13;;;21.60;1.00;;;;;;2612664;54;20281;-73
2024/02/26 05:45:42;;;;;;;24.27;23.37;;;21.60;1.00;;;;;;2612304;46;20493;-76
2024/02/26 05:48:07;;;;;;;23.00;22.20;;;21.60;1.00;;;;;;2612347;54;20547;-77
2024/02/26 05:50:33;;;;;;;23.40;22.60;;;21.60;1.00;;;;;;2612658;54;20154;-76
2024/02/26 05:52:58;;;;;;;23.67;22.80;;;21.60;1.00;;;;;;2612316;39;20528;-76
2024/02/26 05:55:24;;;;;;;22.00;21.20;;;21.60;1.00;;;;;;2612592;54;20154;-77
2024/02/26 05:57:50;;;;;;;23.10;22.30;;;21.60;1.00;;;;;;2611800;54;20823;-77
2024/02/26 06:00:16;;;;;;;23.70;22.80;;;21.60;1.00;;;;;;2612120;54;20160;-76
2024/02/26 06:02:41;;;;;;;22.97;22.17;;;21.60;1.00;;;;;;2613447;39;20560;-76
2024/02/26 06:05:08;;;;;;;23.23;22.43;;;21.60;1.00;;;;;;2613438;54;21012;-77
2024/02/26 06:07:34;;;;;;;23.13;22.33;;;21.60;1.00;;;;;;2613177;54;20201;-77
2024/02/26 06:10:01;;;;;;;24.33;23.43;;;21.60;1.00;;;;;;2612009;54;20406;-76
2024/02/26 06:12:28;;;;;;;23.40;22.60;;;21.60;1.00;;;;;;2611604;54;20416;-77
2024/02/26 06:14:54;;;;;;;23.50;22.70;;;21.50;1.00;;;;;;2612431;39;21208;-77
2024/02/26 06:17:19;;;;;;;22.80;22.00;;;21.60;1.00;;;;;;2612879;54;20437;-77
2024/02/26 06:19:45;;;;;;;23.67;22.87;;;21.60;1.00;;;;;;2612158;54;20249;-76
2024/02/26 06:22:11;;;;;;;22.60;21.80;;;21.60;1.00;;;;;;2612275;54;20204;-77
2024/02/26 06:24:37;;;;;;;23.47;22.67;;;21.50;1.00;;;;;;2611749;54;20471;-78
2024/02/26 06:27:03;;;;;;;22.30;21.50;;;21.60;1.00;;;;;;2611081;54;20164;-79
2024/02/26 06:29:28;;;;;;;21.47;20.77;;;21.60;1.00;;;;;;2612449;39;20662;-77
2024/02/26 06:31:55;;;;;;;21.67;20.97;;;21.60;1.00;;;;;;2611606;54;20423;-78
2024/02/26 06:34:21;;;;;;;19.50;18.80;;;21.70;1.00;;;;;;2612943;31;20700;-76
2024/02/26 06:36:47;;;;;;;19.07;18.47;;;21.60;1.00;;;;;;2613171;54;20422;-80
2024/02/26 06:39:12;;;;;;;19.50;18.80;;;21.60;1.00;;;;;;2612025;54;20187;-77
2024/02/26 06:41:39;;;;;;;19.10;18.50;;;21.60;1.00;;;;;;2612476;54;20427;-75
2024/02/26 06:44:05;;;;;;;18.50;17.90;;;21.60;1.00;;;;;;2612721;51;20167;-75
2024/02/26 06:46:30;;;;;;;19.17;18.57;;;21.60;1.00;;;;;;2611335;54;21019;-75
2024/02/26 06:48:56;;;;;;;19.97;19.27;;;21.50;1.00;;;;;;2611932;54;20965;-75
2024/02/26 06:51:22;;;;;;;19.50;18.90;;;21.50;1.00;;;;;;2611417;54;20152;-75
2024/02/26 06:53:49;;;;;;;19.47;18.77;;;21.50;1.00;;;;;;2612533;54;20151;-75
2024/02/26 06:56:15;;;;;;;19.40;18.80;;;21.50;1.00;;;;;;2612628;39;20820;-79
2024/02/26 06:58:41;;;;;;;18.93;18.33;;;21.50;1.00;;;;;;2606432;54;20450;-76
2024/02/26 07:01:08;;;;;;;19.87;19.20;;;21.50;1.00;;;;;;2612053;54;20205;-75
2024/02/26 07:03:34;;;;;;;19.80;19.10;;;21.50;1.00;;;;;;2611796;54;20158;-74
2024/02/26 07:05:59;;;;;;;19.50;18.90;;;21.60;1.00;;;;;;2611204;54;20455;-75
2024/02/26 07:08:25;;;;;;;18.20;17.60;;;21.60;1.00;;;;;;2611529;54;21059;-73
2024/02/26 07:10:50;;;;;;;17.50;16.90;;;21.60;1.00;;;;;;2611156;54;20154;-76
2024/02/26 07:13:16;;;;;;;18.40;17.80;;;21.70;1.00;;;;;;2609676;54;20211;-78
2024/02/26 07:15:42;;;;;;;17.30;16.80;;;21.70;1.00;;;;;;2611342;54;20173;-78
2024/02/26 07:18:07;;;;;;;17.17;16.67;;;21.70;1.00;;;;;;2610954;54;20176;-78
2024/02/26 07:20:33;;;;;;;17.83;17.23;;;21.70;1.00;;;;;;2611764;54;20944;-80
2024/02/26 07:22:59;;;;;;;17.10;16.60;;;21.80;1.00;;;;;;2610937;54;20162;-77
2024/02/26 07:25:25;;;;;;;17.70;17.10;;;21.80;1.00;;;;;;2611801;54;20156;-79
2024/02/26 07:27:51;;;;;;;19.47;18.87;;;21.80;1.00;;;;;;2611080;54;20425;-77
2024/02/26 07:30:16;;;;;;;17.17;16.67;;;21.80;1.00;;;;;;2611536;39;20452;-76
2024/02/26 07:32:43;;;;;;;20.70;20.00;;;21.90;1.00;;;;;;2611876;54;20153;-76
2024/02/26 07:35:08;;;;;;;18.97;18.37;;;21.80;1.00;;;;;;2612157;54;20165;-80
2024/02/26 07:37:34;;;;;;;19.07;18.47;;;21.80;1.00;;;;;;2611315;54;21012;-77
2024/02/26 07:40:00;;;;;;;21.20;20.30;;;21.80;1.00;;;;;;2612249;54;20165;-76
2024/02/26 07:42:26;;;;;;;18.60;18.00;;;21.80;1.00;;;;;;2610634;47;20169;-78
2024/02/26 07:44:52;;;;;;;19.30;18.70;;;21.80;1.00;;;;;;2610091;47;20556;-75
2024/02/26 07:47:18;;;;;;;17.90;17.30;;;21.90;1.00;;;;;;2609318;51;20201;-71
2024/02/26 07:49:44;;;;;;;18.40;17.80;;;21.90;1.00;;;;;;2609885;54;21002;-69
2024/02/26 07:52:10;;;;;;;18.13;17.53;;;21.90;1.00;;;;;;2610879;54;20424;-70
2024/02/26 07:54:36;;;;;;;18.03;17.43;;;22.00;1.00;;;;;;2611535;39;20758;-71
2024/02/26 07:57:05;;;;;;;16.80;16.30;;;21.90;1.00;;;;;;2611915;54;20323;-84
2024/02/26 07:59:31;;;;;;;18.00;17.40;;;21.80;1.00;;;;;;2611721;54;20733;-76
2024/02/26 08:01:56;;;;;;;18.97;18.37;;;21.80;1.00;;;;;;2610811;54;20472;-78
2024/02/26 08:04:22;;;;;;;16.90;16.40;;;21.80;1.00;;;;;;2611411;54;20525;-76
2024/02/26 08:06:48;;;;;;;18.60;18.00;;;21.80;1.00;;;;;;2612625;54;20242;-82
2024/02/26 08:09:13;;;;;;;18.27;17.67;;;21.80;1.00;;;;;;2611464;54;20173;-80
2024/02/26 08:11:39;;;;;;;18.70;18.10;;;21.80;1.00;;;;;;2612042;54;20165;-83
2024/02/26 08:14:05;;;;;;;19.00;18.40;;;21.80;1.00;;;;;;2611681;54;20165;-84
2024/02/26 08:16:30;;;;;;;19.10;18.50;;;21.90;1.00;;;;;;2611760;54;20485;-78
2024/02/26 08:18:56;;;;;;;17.47;16.87;;;21.90;1.00;;;;;;2613046;54;20157;-78
2024/02/26 08:21:22;;;;;;;19.20;18.50;;;21.90;1.00;;;;;;2612400;54;20165;-80
2024/02/26 08:23:47;;;;;;;17.67;17.07;;;21.90;1.00;;;;;;2611137;47;20709;-78
2024/02/26 08:26:14;;;;;;;18.20;17.60;;;21.90;1.00;;;;;;2611005;54;20225;-77
2024/02/26 08:28:40;;;;;;;34.50;33.30;;;21.90;1.00;;;;;;2610914;54;20446;-72
2024/02/26 08:31:05;;;;;;;33.10;32.00;;;21.90;1.00;;;;;;2611508;54;20162;-76
2024/02/26 08:33:31;;;;;;;33.90;32.70;;;21.80;1.00;;;;;;2613133;47;20170;-73
2024/02/26 08:35:57;;;;;;;33.77;32.57;;;21.80;1.00;;;;;;2611581;54;20174;-75
2024/02/26 08:38:22;;;;;;;33.60;32.40;;;21.70;1.00;;;;;;2612947;54;20161;-75
2024/02/26 08:40:48;;;;;;;34.63;33.43;;;21.80;1.00;;;;;;2612797;54;20260;-75
2024/02/26 08:43:14;;;;;;;33.57;32.37;;;21.90;1.00;;;;;;2611696;54;20164;-74
2024/02/26 08:45:40;;;;;;;33.20;32.10;;;21.90;1.00;;;;;;2611149;54;20990;-72
2024/02/26 08:48:06;;;;;;;33.63;32.43;;;21.90;1.00;;;;;;2612122;54;20151;-71
2024/02/26 08:50:32;;;;;;;34.63;33.43;;;22.00;1.00;;;;;;2612090;54;20169;-73
2024/02/26 08:52:57;;;;;;;34.63;33.43;;;22.00;1.00;;;;;;2611732;54;20444;-73
2024/02/26 08:55:23;;;;;;;34.57;33.37;;;22.00;1.00;;;;;;2612353;54;20165;-70
2024/02/26 08:57:49;;;;;;;33.47;32.37;;;22.10;1.00;;;;;;2611460;47;20168;-75
2024/02/26 09:00:20;;;;;;;34.20;33.00;;;22.20;1.00;;;;;;2612151;54;20158;-75
2024/02/26 09:02:46;;;;;;;33.10;32.00;;;22.10;1.00;;;;;;2610863;54;20193;-76
2024/02/26 09:05:12;;;;;;;32.00;30.90;;;22.10;1.00;;;;;;2611601;54;20426;-82
2024/02/26 09:07:38;;;;;;;33.00;31.90;;;22.00;1.00;;;;;;2612937;47;20442;-79
2024/02/26 09:10:05;;;;;;;39.80;38.30;;;21.90;1.00;;;;;;2613298;54;20420;-88
2024/02/26 09:12:30;;;;;;;50.20;48.00;;;22.00;1.00;;;;;;2611847;54;20169;-83
2024/02/26 09:14:57;;;;;;;51.50;49.30;;;21.90;1.00;;;;;;2611557;54;21006;-74
2024/02/26 09:17:23;;;;;;;51.80;49.60;;;22.00;1.00;;;;;;2612041;54;20170;-73
2024/02/26 09:19:48;;;;;;;52.30;50.00;;;22.00;1.00;;;;;;2611465;54;20474;-75
2024/02/26 09:22:14;;;;;;;54.07;51.77;;;22.00;1.00;;;;;;2611648;47;20173;-74
2024/02/26 09:24:40;;;;;;;54.50;52.20;;;22.10;1.00;;;;;;2611396;47;20182;-73
2024/02/26 09:27:05;;;;;;;55.20;52.90;;;22.20;1.00;;;;;;2610287;47;20176;-74
2024/02/26 09:29:31;;;;;;;55.30;53.00;;;22.20;1.00;;;;;;2611766;54;20167;-74
2024/02/26 09:31:57;;;;;;;54.60;52.30;;;22.20;1.00;;;;;;2611312;54;20186;-74
2024/02/26 09:34:22;;;;;;;40.60;39.10;;;22.30;1.00;;;;;;2612141;39;20561;-73
2024/02/26 09:36:48;;;;;;;40.70;39.20;;;22.30;1.00;;;;;;2610357;54;20147;-76
2024/02/26 09:39:17;;;;;;;38.33;36.93;;;22.10;1.00;;;;;;2609915;54;20162;-76
2024/02/26 09:41:44;;;;;;;39.67;38.17;;;22.20;1.00;;;;;;2609289;54;20163;-77
2024/02/26 09:44:12;;;;;;;38.70;37.30;;;22.10;1.00;;;;;;2611030;54;20418;-77
2024/02/26 09:46:38;;;;;;;38.23;36.83;;;22.00;1.00;;;;;;2609178;39;20864;-77
2024/02/26 09:49:04;;;;;;;37.10;35.70;;;21.90;1.00;;;;;;2608846;54;20491;-77
2024/02/26 09:51:32;;;;;;;38.10;36.70;;;21.80;1.00;;;;;;2610960;54;20158;-77
2024/02/26 09:54:01;;;;;;;38.97;37.47;;;21.70;1.00;;;;;;2610653;54;20528;-76
2024/02/26 09:56:27;;;;;;;41.13;39.63;;;21.70;1.00;;;;;;2611178;54;20417;-76
2024/02/26 09:58:54;;;;;;;39.27;37.77;;;21.70;1.00;;;;;;2612939;54;20421;-76
2024/02/26 10:01:20;;;;;;;37.57;36.17;;;21.70;1.00;;;;;;2610672;39;20737;-76
2024/02/26 10:03:52;;;;;;;38.20;36.70;;;21.60;1.00;;;;;;2611372;47;20426;-76
2024/02/26 10:06:17;;;;;;;38.10;36.70;;;21.60;1.00;;;;;;2612320;39;20833;-75
2024/02/26 10:08:44;;;;;;;37.37;35.97;;;21.60;1.00;;;;;;2611058;54;20438;-75
2024/02/26 10:11:10;;;;;;;38.20;36.80;;;21.50;1.00;;;;;;2612200;39;20606;-75
2024/02/26 10:13:36;;;;;;;38.23;36.83;;;21.60;1.00;;;;;;2610711;54;20530;-75
2024/02/26 10:16:06;;;;;;;38.13;36.73;;;21.60;1.00;;;;;;2610273;39;20671;-78
2024/02/26 10:18:53;;;;;;;39.00;37.60;;;21.60;1.00;;;;;;2611003;54;20193;-78
2024/02/26 10:21:20;;;;;;;38.70;37.30;;;21.50;1.00;;;;;;2611082;54;20429;-78
2024/02/26 10:23:47;;;;;;;38.40;37.00;;;21.50;1.00;;;;;;2611311;39;20834;-78
2024/02/26 10:26:15;;;;;;;39.00;37.50;;;21.50;1.00;;;;;;2608444;54;20434;-78
2024/02/26 10:28:45;;;;;;;39.37;37.87;;;21.50;1.00;;;;;;2610337;46;20451;-78
2024/02/26 10:31:13;;;;;;;38.00;36.60;;;21.50;1.00;;;;;;2612056;54;20443;-78
2024/02/26 10:33:40;;;;;;;38.00;36.60;;;21.50;1.00;;;;;;2610875;54;20419;-78
2024/02/26 10:36:07;;;;;;;37.60;36.20;;;21.50;1.00;;;;;;2610791;54;20435;-78
2024/02/26 10:38:37;;;;;;;38.50;37.10;;;21.50;1.00;;;;;;2608831;54;20491;-78
2024/02/26 10:41:05;;;;;;;37.90;36.43;;;21.40;1.00;;;;;;2610688;54;20460;-78
2024/02/26 10:43:31;;;;;;;38.40;36.90;;;21.50;1.00;;;;;;2609828;54;20451;-78
2024/02/26 10:45:56;;;;;;;37.50;36.10;;;21.40;1.00;;;;;;2611165;54;21035;-78
2024/02/26 10:48:23;;;;;;;39.53;37.90;;;21.50;1.00;;;;;;2610702;54;20800;-78
2024/02/26 10:50:50;;;;;;;39.70;38.20;;;21.40;1.00;;;;;;2611498;51;21337;-78
2024/02/26 10:53:23;;;;;;;39.47;37.97;;;21.40;1.00;;;;;;2609401;54;20462;-78
2024/02/26 10:55:54;;;;;;;39.07;37.57;;;21.50;1.00;;;;;;2609474;54;20426;-78
2024/02/26 10:58:21;;;;;;;41.20;39.60;;;21.50;1.00;;;;;;2611268;54;20426;-79
2024/02/26 11:00:49;;;;;;;40.50;38.90;;;21.50;1.00;;;;;;2610670;54;21031;-78
2024/02/26 11:03:17;;;;;;;38.47;36.97;;;21.50;1.00;;;;;;2611028;54;20451;-78
2024/02/26 11:05:44;;;;;;;39.00;37.50;;;21.50;1.00;;;;;;2612364;31;20929;-78
2024/02/26 11:08:11;;;;;;;39.70;38.10;;;21.40;1.00;;;;;;2611852;47;20437;-78
2024/02/26 11:10:38;;;;;;;36.90;35.50;;;21.50;1.00;;;;;;2610394;54;20981;-75
2024/02/26 11:13:06;;;;;;;50.93;48.83;;;21.40;1.00;;;;;;2610704;54;20444;-78
2024/02/26 11:15:33;;;;;;;49.47;47.37;;;21.50;1.00;;;;;;2614105;39;20705;-86
2024/02/26 11:18:00;;;;;;;49.97;47.87;;;21.60;1.00;;;;;;2616860;54;20449;-85
2024/02/26 11:20:29;;;;;;;49.83;47.73;;;21.70;1.00;;;;;;2615306;54;20957;-88
2024/02/26 11:22:54;;;;;;;50.70;48.60;;;21.80;1.00;;;;;;2617057;54;20415;-86
2024/02/26 11:25:22;;;;;;;37.27;35.87;;;21.80;1.00;;;;;;2613054;54;20453;-77
2024/02/26 11:27:52;;;;;;;50.70;48.50;;;21.80;1.00;;;;;;2612230;54;20231;-86
2024/02/26 11:30:19;;;;;;;50.20;48.10;;;21.90;1.00;;;;;;2612263;54;20430;-80
2024/02/26 11:32:47;;;;;;;49.97;47.77;;;21.90;1.00;;;;;;2614253;47;20431;-85
2024/02/26 11:35:15;;;;;;;50.77;48.67;;;21.90;1.00;;;;;;2612711;54;20403;-76
2024/02/26 11:37:41;;;;;;;51.70;49.50;;;21.90;1.00;;;;;;2610028;54;20539;-75
2024/02/26 11:40:11;;;;;;;49.93;47.80;;;21.90;1.00;;;;;;2611583;47;20451;-78
2024/02/26 11:42:44;;;;;;;49.77;47.63;;;22.00;1.00;;;;;;2611478;54;20411;-80
2024/02/26 11:45:38;;;;;;;50.77;48.57;;;22.00;1.00;;;;;;2611196;54;20450;-76
2024/02/26 11:48:22;;;;;;;50.73;48.53;;;22.10;1.00;;;;;;2610714;39;21923;-77
2024/02/26 11:50:54;;;;;;;51.60;49.40;;;22.10;1.00;;;;;;2611343;54;21062;-75
2024/02/26 11:53:27;;;;;;;52.43;50.23;;;22.20;1.00;;;;;;2612873;54;20408;-75
2024/02/26 11:56:27;;;;;;;50.20;48.00;;;22.20;1.00;;;;;;2612439;54;20401;-75
2024/02/26 11:59:01;;;;;;;49.40;47.30;;;22.30;1.00;;;;;;2613198;39;20821;-74
2024/02/26 12:01:44;;;;;;;49.67;47.57;;;22.40;1.00;;;;;;2611919;54;20471;-72
2024/02/26 12:04:16;;;;;;;47.10;45.07;;;22.50;1.00;;;;;;2611691;39;20879;-75
2024/02/26 12:06:55;;;;;;;48.00;46.00;;;22.60;1.00;;;;;;2613804;39;20771;-74
2024/02/26 12:09:41;;;;;;;52.03;49.77;;;22.80;1.00;;;;;;2613440;54;20484;-74
2024/02/26 12:12:08;;;;;;;49.07;46.97;;;23.10;1.00;;;;;;2612419;54;20472;-75
2024/02/26 12:14:39;;;;;;;48.03;45.93;;;23.50;1.00;;;;;;2611581;54;20505;-73
2024/02/26 12:17:07;;;;;;;49.37;47.27;;;23.90;1.00;;;;;;2610699;47;20415;-74
2024/02/26 12:19:35;;;;;;;51.53;49.23;;;24.20;1.00;;;;;;2607923;46;20444;-73
2024/02/26 12:22:00;;;;;;;51.00;48.90;;;24.50;1.00;;;;;;2611409;54;20410;-73
2024/02/26 12:24:26;;;;;;;50.40;48.30;;;24.90;1.00;;;;;;2610176;54;20500;-75
2024/02/26 12:26:52;;;;;;;50.47;48.37;;;25.20;1.00;;;;;;2609664;47;20166;-76
2024/02/26 12:29:18;;;;;;;47.90;45.90;;;25.30;1.00;;;;;;2609623;47;20475;-76
2024/02/26 12:31:44;;;;;;;48.20;46.20;;;25.60;1.00;;;;;;2610365;54;20260;-74
2024/02/26 12:34:10;;;;;;;48.97;46.97;;;25.90;1.00;;;;;;2610087;47;20194;-72
2024/02/26 12:36:36;;;;;;;48.97;46.93;;;26.00;1.00;;;;;;2610509;54;21031;-77
2024/02/26 12:39:06;;;;;;;48.23;46.23;;;26.10;1.00;;;;;;2608848;54;21042;-74
2024/02/26 12:41:32;;;;;;;49.07;47.07;;;26.30;1.00;;;;;;2610075;54;21006;-75
2024/02/26 12:43:58;;;;;;;50.63;48.53;;;26.40;1.00;;;;;;2610532;54;20507;-80
2024/02/26 12:46:24;;;;;;;48.37;46.37;;;26.60;1.00;;;;;;2609849;54;20423;-71
2024/02/26 12:48:50;;;;;;;49.57;47.53;;;26.60;1.00;;;;;;2611024;39;20870;-70
2024/02/26 12:51:17;;;;;;;49.77;47.67;;;26.70;1.00;;;;;;2608738;54;20177;-68
2024/02/26 12:53:45;;;;;;;49.73;47.63;;;26.90;1.00;;;;;;2609821;54;20190;-68
2024/02/26 12:56:12;;;;;;;51.53;49.37;;;27.10;1.00;;;;;;2609642;54;20423;-75
2024/02/26 12:58:40;;;;;;;49.53;47.50;;;27.30;1.00;;;;;;2609823;54;20447;-76
2024/02/26 13:01:06;;;;;;;47.83;45.83;;;27.40;1.00;;;;;;2611093;47;20513;-74
2024/02/26 13:03:36;;;;;;;48.00;46.00;;;27.50;1.00;;;;;;2610428;47;20447;-73
2024/02/26 13:06:03;;;;;;;49.60;47.50;;;27.60;1.00;;;;;;2609996;54;20427;-73
2024/02/26 13:08:32;;;;;;;49.57;47.47;;;27.60;1.00;;;;;;2608660;47;20419;-75
2024/02/26 13:11:00;;;;;;;49.20;47.10;;;27.60;1.00;;;;;;2609357;54;20472;-74